Time,TemperatureF,DewpointF,PressureIn,WindDirection,WindDirectionDegrees,WindSpeedMPH,WindSpeedGustMPH,Humidity,HourlyPrecipIn,Conditions,Clouds,dailyrainin,SoftwareType,DateUTC
2013-07-13 00:01:00,85.0,72.0,-100.00,SSE,158,14.0,-999.0,63,-99.99,,,-99.99,,2013-07-13 05:01:00,
2013-07-13 00:22:00,85.0,72.0,-100.00,SSE,158,15.0,-999.0,63,-99.99,,,-99.99,,2013-07-13 05:22:00,
2013-07-13 00:32:00,85.0,72.0,-100.00,South,180,15.0,-999.0,64,-99.99,,,-99.99,,2013-07-13 05:32:00,
2013-07-13 00:42:00,85.0,72.0,-100.00,South,180,15.0,-999.0,64,-99.99,,,-99.99,,2013-07-13 05:42:00,
2013-07-13 00:52:00,85.0,71.0,-100.00,SSE,158,15.0,-999.0,64,-99.99,,,-99.99,,2013-07-13 05:52:00,
2013-07-13 01:01:00,84.0,72.0,-100.00,SSE,158,13.0,-999.0,65,-99.99,,,-99.99,,2013-07-13 06:01:00,
2013-07-13 01:22:00,84.0,71.0,-100.00,South,180,15.0,-999.0,65,-99.99,,,-99.99,,2013-07-13 06:22:00,
2013-07-13 01:32:00,83.0,71.0,-100.00,South,180,15.0,-999.0,66,-99.99,,,-99.99,,2013-07-13 06:32:00,
2013-07-13 01:43:00,83.0,71.0,-100.00,South,180,15.0,-999.0,66,-99.99,,,-99.99,,2013-07-13 06:43:00,
2013-07-13 01:52:00,83.0,71.0,-100.00,South,180,15.0,-999.0,67,-99.99,,,-99.99,,2013-07-13 06:52:00,
2013-07-13 02:02:00,83.0,71.0,-100.00,South,180,13.0,-999.0,67,-99.99,,,-99.99,,2013-07-13 07:02:00,
2013-07-13 02:11:00,83.0,71.0,-100.00,South,180,13.0,-999.0,67,-99.99,,,-99.99,,2013-07-13 07:11:00,
2013-07-13 02:22:00,83.0,71.0,-100.00,South,180,13.0,-999.0,67,-99.99,,,-99.99,,2013-07-13 07:22:00,
2013-07-13 02:33:00,83.0,71.0,-100.00,South,180,12.0,-999.0,68,-99.99,,,-99.99,,2013-07-13 07:33:00,
2013-07-13 02:44:00,83.0,71.0,-100.00,South,180,12.0,-999.0,68,-99.99,,,-99.99,,2013-07-13 07:44:00,
2013-07-13 02:53:00,82.0,71.0,-100.00,South,180,12.0,-999.0,68,-99.99,,,-99.99,,2013-07-13 07:53:00,
2013-07-13 03:01:00,81.0,71.0,-100.00,SSE,158,10.0,-999.0,70,-99.99,,,-99.99,,2013-07-13 08:01:00,
2013-07-13 03:11:00,81.0,71.0,-100.00,SSE,158,10.0,-999.0,70,-99.99,,,-99.99,,2013-07-13 08:11:00,
2013-07-13 03:22:00,81.0,71.0,-100.00,SSE,158,9.0,-999.0,72,-99.99,,,-99.99,,2013-07-13 08:22:00,
2013-07-13 03:33:00,80.0,71.0,-100.00,SSE,158,10.0,-999.0,74,-99.99,,,-99.99,,2013-07-13 08:33:00,
2013-07-13 03:43:00,80.0,71.0,-100.00,SSE,158,10.0,-999.0,74,-99.99,,,-99.99,,2013-07-13 08:43:00,
2013-07-13 03:52:00,80.0,71.0,-100.00,SSE,158,9.0,-999.0,75,-99.99,,,-99.99,,2013-07-13 08:52:00,
2013-07-13 04:02:00,79.0,71.0,-100.00,SSE,158,10.0,-999.0,76,-99.99,,,-99.99,,2013-07-13 09:02:00,
2013-07-13 04:22:00,79.0,71.0,-100.00,SSE,158,11.0,-999.0,78,-99.99,,,-99.99,,2013-07-13 09:22:00,
2013-07-13 04:33:00,78.0,71.0,-100.00,SSE,158,10.0,-999.0,79,-99.99,,,-99.99,,2013-07-13 09:33:00,
2013-07-13 04:43:00,78.0,71.0,-100.00,SSE,158,10.0,-999.0,79,-99.99,,,-99.99,,2013-07-13 09:43:00,
2013-07-13 04:53:00,78.0,71.0,-100.00,SSE,158,12.0,-999.0,78,-99.99,,,-99.99,,2013-07-13 09:53:00,
2013-07-13 05:01:00,78.0,71.0,-100.00,SSE,158,12.0,-999.0,79,-99.99,,,-99.99,,2013-07-13 10:01:00,
2013-07-13 05:22:00,78.0,71.0,-100.00,SSE,158,11.0,-999.0,79,-99.99,,,-99.99,,2013-07-13 10:22:00,
2013-07-13 05:32:00,78.0,71.0,-100.00,SSE,158,13.0,-999.0,79,-99.99,,,-99.99,,2013-07-13 10:32:00,
2013-07-13 05:43:00,78.0,71.0,-100.00,SSE,158,13.0,-999.0,79,-99.99,,,-99.99,,2013-07-13 10:43:00,
2013-07-13 05:52:00,78.0,70.0,-100.00,SSE,158,13.0,-999.0,78,-99.99,,,-99.99,,2013-07-13 10:52:00,
2013-07-13 06:02:00,78.0,70.0,-100.00,South,180,12.0,-999.0,78,-99.99,,,-99.99,,2013-07-13 11:02:00,
2013-07-13 06:22:00,77.0,70.0,-100.00,SSE,158,13.0,-999.0,78,-99.99,,,-99.99,,2013-07-13 11:22:00,
2013-07-13 06:32:00,76.0,70.0,-100.00,SSE,158,13.0,-999.0,80,-99.99,,,-99.99,,2013-07-13 11:32:00,
2013-07-13 06:42:00,76.0,70.0,-100.00,SSE,158,13.0,-999.0,80,-99.99,,,-99.99,,2013-07-13 11:42:00,
2013-07-13 06:52:00,76.0,70.0,-100.00,SSE,158,12.0,-999.0,81,-99.99,,,-99.99,,2013-07-13 11:52:00,
2013-07-13 07:02:00,76.0,70.0,-100.00,SSE,158,12.0,-999.0,81,-99.99,,,-99.99,,2013-07-13 12:02:00,
2013-07-13 07:22:00,76.0,69.0,-100.00,SSE,158,12.0,-999.0,79,-99.99,,,-99.99,,2013-07-13 12:22:00,
2013-07-13 07:32:00,77.0,70.0,-100.00,South,180,14.0,-999.0,78,-99.99,,,-99.99,,2013-07-13 12:32:00,
2013-07-13 07:43:00,77.0,70.0,-100.00,South,180,14.0,-999.0,78,-99.99,,,-99.99,,2013-07-13 12:43:00,
2013-07-13 07:52:00,78.0,70.0,-100.00,SSE,158,13.0,-999.0,76,-99.99,,,-99.99,,2013-07-13 12:52:00,
2013-07-13 08:01:00,79.0,70.0,-100.00,South,180,16.0,-999.0,75,-99.99,,,-99.99,,2013-07-13 13:01:00,
2013-07-13 08:22:00,79.0,70.0,-100.00,SSE,158,13.0,-999.0,75,-99.99,,,-99.99,,2013-07-13 13:22:00,
2013-07-13 08:32:00,81.0,71.0,-100.00,South,180,15.0,-999.0,73,-99.99,,,-99.99,,2013-07-13 13:32:00,
2013-07-13 08:43:00,81.0,71.0,-100.00,South,180,15.0,-999.0,73,-99.99,,,-99.99,,2013-07-13 13:43:00,
2013-07-13 08:53:00,82.0,72.0,-100.00,South,180,17.0,-999.0,71,-99.99,,,-99.99,,2013-07-13 13:53:00,
2013-07-13 09:02:00,83.0,72.0,-100.00,South,180,17.0,-999.0,70,-99.99,,,-99.99,,2013-07-13 14:02:00,
2013-07-13 09:11:00,83.0,72.0,-100.00,South,180,17.0,-999.0,70,-99.99,,,-99.99,,2013-07-13 14:11:00,
2013-07-13 14:44:00,98.0,71.0,-100.00,South,180,18.0,-999.0,42,-99.99,,,-99.99,,2013-07-13 19:44:00,
2013-07-13 17:53:00,95.0,76.0,-100.00,SE,135,17.0,-999.0,53,-99.99,,,-99.99,,2013-07-13 22:53:00,
2013-07-13 18:01:00,96.0,77.0,-100.00,SSE,158,15.0,-999.0,55,-99.99,,,-99.99,,2013-07-13 23:01:00,
2013-07-13 18:22:00,95.0,76.0,-100.00,SSE,158,18.0,-999.0,53,-99.99,,,-99.99,,2013-07-13 23:22:00,
2013-07-13 18:32:00,95.0,75.0,-100.00,SSE,158,14.0,-999.0,53,-99.99,,,-99.99,,2013-07-13 23:32:00,
2013-07-13 18:42:00,95.0,75.0,-100.00,SSE,158,14.0,-999.0,53,-99.99,,,-99.99,,2013-07-13 23:42:00,
2013-07-13 18:53:00,95.0,76.0,-100.00,SSE,158,16.0,-999.0,54,-99.99,,,-99.99,,2013-07-13 23:53:00,
2013-07-13 19:01:00,94.0,74.0,-100.00,SSE,158,18.0,-999.0,53,-99.99,,,-99.99,,2013-07-14 00:01:00,
2013-07-13 19:21:00,93.0,76.0,-100.00,SSE,158,15.0,-999.0,56,-99.99,,,-99.99,,2013-07-14 00:21:00,
2013-07-13 19:33:00,92.0,75.0,-100.00,SSE,158,15.0,-999.0,58,-99.99,,,-99.99,,2013-07-14 00:33:00,
2013-07-13 19:42:00,92.0,75.0,-100.00,SSE,158,15.0,-999.0,58,-99.99,,,-99.99,,2013-07-14 00:42:00,
2013-07-13 19:53:00,91.0,76.0,-100.00,SSE,158,13.0,-999.0,61,-99.99,,,-99.99,,2013-07-14 00:53:00,
2013-07-13 20:02:00,89.0,75.0,-100.00,SE,135,16.0,-999.0,63,-99.99,,,-99.99,,2013-07-14 01:02:00,
2013-07-13 20:11:00,89.0,75.0,-100.00,SE,135,16.0,-999.0,63,-99.99,,,-99.99,,2013-07-14 01:11:00,
2013-07-13 20:22:00,89.0,75.0,-100.00,SE,135,14.0,-999.0,64,-99.99,,,-99.99,,2013-07-14 01:22:00,
2013-07-13 20:32:00,88.0,75.0,-100.00,SSE,158,17.0,-999.0,66,-99.99,,,-99.99,,2013-07-14 01:32:00,
2013-07-13 20:43:00,88.0,75.0,-100.00,SSE,158,17.0,-999.0,66,-99.99,,,-99.99,,2013-07-14 01:43:00,
2013-07-13 20:52:00,87.0,75.0,-100.00,SSE,158,15.0,-999.0,67,-99.99,,,-99.99,,2013-07-14 01:52:00,
2013-07-13 21:01:00,85.0,75.0,-100.00,SSE,158,13.0,-999.0,70,-99.99,,,-99.99,,2013-07-14 02:01:00,
2013-07-13 21:11:00,85.0,75.0,-100.00,SSE,158,13.0,-999.0,70,-99.99,,,-99.99,,2013-07-14 02:11:00,
2013-07-13 21:22:00,85.0,74.0,-100.00,SE,135,12.0,-999.0,70,-99.99,,,-99.99,,2013-07-14 02:22:00,
2013-07-13 21:32:00,84.0,75.0,-100.00,SSE,158,12.0,-999.0,72,-99.99,,,-99.99,,2013-07-14 02:32:00,
2013-07-13 21:43:00,84.0,75.0,-100.00,SSE,158,12.0,-999.0,72,-99.99,,,-99.99,,2013-07-14 02:43:00,
2013-07-13 21:53:00,84.0,75.0,-100.00,SSE,158,12.0,-999.0,74,-99.99,,,-99.99,,2013-07-14 02:53:00,
2013-07-13 22:01:00,83.0,76.0,-100.00,SE,135,10.0,-999.0,78,-99.99,,,-99.99,,2013-07-14 03:01:00,
2013-07-13 22:11:00,83.0,76.0,-100.00,SE,135,10.0,-999.0,78,-99.99,,,-99.99,,2013-07-14 03:11:00,
2013-07-13 22:22:00,82.0,76.0,-100.00,SE,135,10.0,-999.0,80,-99.99,,,-99.99,,2013-07-14 03:22:00,
2013-07-13 22:32:00,83.0,76.0,-100.00,SE,135,11.0,-999.0,80,-99.99,,,-99.99,,2013-07-14 03:32:00,
2013-07-13 22:43:00,83.0,76.0,-100.00,SE,135,11.0,-999.0,80,-99.99,,,-99.99,,2013-07-14 03:43:00,
2013-07-13 22:53:00,83.0,76.0,-100.00,SE,135,14.0,-999.0,80,-99.99,,,-99.99,,2013-07-14 03:53:00,
2013-07-13 23:02:00,83.0,76.0,-100.00,SE,135,12.0,-999.0,78,-99.99,,,-99.99,,2013-07-14 04:02:00,
2013-07-13 23:11:00,83.0,76.0,-100.00,SE,135,12.0,-999.0,78,-99.99,,,-99.99,,2013-07-14 04:11:00,
2013-07-13 23:22:00,83.0,74.0,-100.00,SSE,158,13.0,-999.0,75,-99.99,,,-99.99,,2013-07-14 04:22:00,
2013-07-13 23:32:00,83.0,74.0,-100.00,SSE,158,13.0,-999.0,73,-99.99,,,-99.99,,2013-07-14 04:32:00,
2013-07-13 23:42:00,83.0,74.0,-100.00,SSE,158,13.0,-999.0,73,-99.99,,,-99.99,,2013-07-14 04:42:00,
2013-07-13 23:54:00,83.0,73.0,-100.00,SE,135,13.0,-999.0,72,-99.99,,,-99.99,,2013-07-14 04:54:00,